Time;durP1;ratioP1;P1;durP2;ratioP2;P2;SDS_P1;SDS_P2;PMS_P1;PMS_P2;Temp;Humidity;BMP_temperature;BMP_pressure;BME280_temperature;BME280_humidity;BME280_pressure;Samples;Min_cycle;Max_cycle;Signal;HPM_P1;HPM_P2
2022/05/22 00:00:09;;;;;;;8.50;3.45;;;17.40;98.70;;;;;;5029837;28;20069;-66
2022/05/22 00:02:35;;;;;;;7.03;2.67;;;17.40;99.00;;;;;;5031044;28;20060;-65
2022/05/22 00:05:01;;;;;;;5.72;3.22;;;17.40;99.10;;;;;;5028869;28;20080;-66
2022/05/22 00:07:27;;;;;;;6.90;3.10;;;17.40;99.20;;;;;;5029579;28;20117;-66
2022/05/22 00:09:52;;;;;;;4.22;2.90;;;17.30;99.40;;;;;;5030016;28;20045;-67
2022/05/22 00:12:18;;;;;;;7.45;3.20;;;17.40;99.60;;;;;;5030822;28;20476;-65
2022/05/22 00:14:44;;;;;;;9.48;2.95;;;17.30;99.70;;;;;;5030082;28;20033;-66
2022/05/22 00:17:10;;;;;;;7.13;2.60;;;17.30;99.80;;;;;;5050306;28;20103;-66
2022/05/22 00:19:37;;;;;;;5.93;2.95;;;17.30;99.70;;;;;;5050394;28;20033;-66
2022/05/22 00:22:03;;;;;;;4.18;2.60;;;17.30;99.80;;;;;;5032033;28;20029;-67
2022/05/22 00:24:30;;;;;;;6.72;2.92;;;17.20;99.90;;;;;;5032041;28;20033;-66
2022/05/22 00:26:57;;;;;;;5.18;2.50;;;17.20;99.90;;;;;;5049670;28;20120;-66
2022/05/22 00:29:23;;;;;;;5.88;2.92;;;17.20;99.90;;;;;;5032561;28;20474;-65
2022/05/22 00:31:49;;;;;;;4.03;2.95;;;17.20;99.90;;;;;;5052222;28;20104;-67
2022/05/22 00:34:16;;;;;;;4.25;2.80;;;17.20;99.90;;;;;;5054341;28;20028;-67
2022/05/22 00:36:42;;;;;;;5.82;3.05;;;17.30;99.90;;;;;;5053938;28;20025;-67
2022/05/22 00:39:08;;;;;;;5.78;3.22;;;17.20;99.90;;;;;;5054281;28;20482;-67
2022/05/22 00:41:34;;;;;;;6.85;4.10;;;17.10;99.90;;;;;;5054062;28;20040;-67
2022/05/22 00:44:03;;;;;;;6.57;3.20;;;17.00;99.90;;;;;;5035602;28;20362;-66
2022/05/22 00:46:30;;;;;;;4.70;2.88;;;17.10;99.90;;;;;;5053751;28;20339;-67
2022/05/22 00:49:17;;;;;;;5.25;3.10;;;17.10;99.90;;;;;;5053386;28;20041;-67
2022/05/22 00:51:52;;;;;;;6.13;3.50;;;17.00;99.90;;;;;;5053807;28;20072;-81
2022/05/22 00:55:14;;;;;;;9.80;3.63;;;16.90;99.90;;;;;;5053796;28;20033;-66
2022/05/22 00:57:55;;;;;;;6.95;2.75;;;16.90;99.90;;;;;;4956533;28;20042;-66
2022/05/22 01:00:26;;;;;;;8.57;2.47;;;16.80;99.90;;;;;;4972765;28;20043;-66
2022/05/22 01:05:40;;;;;;;4.68;2.67;;;16.70;99.90;;;;;;4973415;28;20045;-67
2022/05/22 01:08:06;;;;;;;5.78;2.50;;;16.70;99.90;;;;;;4957026;28;20037;-67
2022/05/22 01:10:46;;;;;;;9.82;3.47;;;16.60;99.90;;;;;;4956382;28;20403;-65
2022/05/22 01:13:14;;;;;;;10.60;2.58;;;16.70;99.90;;;;;;4956470;28;20114;-66
2022/05/22 01:15:40;;;;;;;4.95;2.35;;;16.60;99.90;;;;;;4956043;28;20117;-66
2022/05/22 01:18:05;;;;;;;5.57;2.97;;;16.70;99.90;;;;;;4971495;28;20046;-65
2022/05/22 01:20:32;;;;;;;4.18;2.05;;;16.60;99.90;;;;;;4972423;28;20057;-65
2022/05/22 01:22:58;;;;;;;3.65;2.40;;;16.60;99.90;;;;;;4955550;28;20038;-66
2022/05/22 01:25:24;;;;;;;6.15;2.30;;;16.60;99.90;;;;;;4972367;28;20069;-66
2022/05/22 01:27:50;;;;;;;4.53;2.40;;;16.60;99.90;;;;;;5002856;28;20044;-65
2022/05/22 01:30:22;;;;;;;4.05;2.42;;;16.60;99.90;;;;;;5053540;28;20036;-66
2022/05/22 01:32:49;;;;;;;5.75;2.95;;;16.60;99.90;;;;;;5053231;28;20119;-67
2022/05/22 01:35:18;;;;;;;5.70;2.95;;;16.50;99.90;;;;;;5053696;28;20025;-67
2022/05/22 01:37:44;;;;;;;4.85;2.60;;;16.40;99.90;;;;;;5035273;28;20047;-67
2022/05/22 01:40:11;;;;;;;4.57;2.65;;;16.40;99.90;;;;;;5052448;28;20060;-66
2022/05/22 01:42:38;;;;;;;5.05;3.10;;;16.30;99.90;;;;;;5052693;28;20446;-67
2022/05/22 01:45:05;;;;;;;6.38;2.72;;;16.30;99.90;;;;;;5052655;28;20048;-67
2022/05/22 01:47:36;;;;;;;7.35;3.20;;;16.30;99.90;;;;;;5052090;28;20029;-66
2022/05/22 01:50:02;;;;;;;5.10;2.70;;;16.30;99.90;;;;;;5051988;28;20024;-66
2022/05/22 01:52:28;;;;;;;28.65;4.15;;;16.30;99.90;;;;;;5052463;28;20021;-66
2022/05/22 01:54:53;;;;;;;4.45;2.50;;;16.30;99.90;;;;;;5050725;28;20029;-66
2022/05/22 01:57:19;;;;;;;6.63;4.03;;;16.40;99.90;;;;;;5052246;28;20036;-67
2022/05/22 01:59:45;;;;;;;6.15;3.45;;;16.40;99.90;;;;;;5051488;28;20414;-65
2022/05/22 02:02:11;;;;;;;7.43;3.30;;;16.40;99.90;;;;;;5052018;28;20378;-66
2022/05/22 02:04:36;;;;;;;6.80;3.28;;;16.40;99.90;;;;;;5052976;28;20459;-66
2022/05/22 02:09:48;;;;;;;6.15;3.30;;;16.10;99.90;;;;;;5052485;28;20044;-66
2022/05/22 02:12:14;;;;;;;12.00;4.43;;;16.00;99.90;;;;;;5052606;28;20017;-67
2022/05/22 02:14:40;;;;;;;4.68;3.20;;;16.10;99.90;;;;;;5051219;28;20071;-67
2022/05/22 02:17:05;;;;;;;4.68;2.45;;;16.20;99.90;;;;;;5050015;28;20084;-65
2022/05/22 02:19:31;;;;;;;6.43;3.03;;;16.20;99.90;;;;;;5052340;28;20430;-65
2022/05/22 02:21:57;;;;;;;7.28;2.97;;;16.30;99.90;;;;;;5050255;28;20367;-66
2022/05/22 02:24:23;;;;;;;6.15;2.90;;;16.40;99.90;;;;;;5052039;28;20048;-66
2022/05/22 02:26:49;;;;;;;6.00;2.85;;;16.50;99.90;;;;;;5052085;28;20025;-80
2022/05/22 02:29:15;;;;;;;14.10;3.60;;;16.40;99.90;;;;;;5052154;28;20107;-65
2022/05/22 02:31:40;;;;;;;6.60;3.38;;;16.30;99.90;;;;;;5050874;28;20029;-65
2022/05/22 02:34:06;;;;;;;7.53;2.83;;;16.50;99.90;;;;;;5051681;28;20036;-65
2022/05/22 02:36:32;;;;;;;9.38;2.92;;;16.40;99.90;;;;;;5051865;28;20477;-66
2022/05/22 02:38:57;;;;;;;3.72;2.53;;;16.30;99.90;;;;;;5050989;28;20386;-66
2022/05/22 02:41:25;;;;;;;4.10;2.42;;;16.20;99.90;;;;;;5051850;28;20025;-65
2022/05/22 02:43:52;;;;;;;4.80;2.58;;;16.20;99.90;;;;;;5051202;28;20039;-67
2022/05/22 02:46:19;;;;;;;7.90;2.72;;;16.20;99.90;;;;;;5050397;28;20025;-66
2022/05/22 02:48:46;;;;;;;4.75;3.10;;;16.10;99.90;;;;;;5051875;28;20054;-66
2022/05/22 02:51:17;;;;;;;5.43;2.45;;;15.90;99.90;;;;;;5050689;28;20355;-65
2022/05/22 02:53:43;;;;;;;14.80;2.53;;;15.90;99.90;;;;;;5050606;28;20471;-66
2022/05/22 02:56:15;;;;;;;3.22;2.40;;;15.80;99.90;;;;;;5050650;28;20037;-65
2022/05/22 02:58:41;;;;;;;3.55;2.40;;;15.90;99.90;;;;;;5051627;28;20527;-65
2022/05/22 03:01:06;;;;;;;5.45;2.15;;;15.80;99.90;;;;;;5050734;28;20021;-65
2022/05/22 03:03:33;;;;;;;7.57;2.80;;;15.70;99.90;;;;;;5051759;28;20029;-66
2022/05/22 03:08:43;;;;;;;7.90;2.95;;;15.70;99.90;;;;;;5051389;28;20107;-66
2022/05/22 03:11:09;;;;;;;5.57;2.65;;;15.80;99.90;;;;;;5049096;28;20017;-66
2022/05/22 03:13:35;;;;;;;3.60;2.85;;;15.90;99.90;;;;;;5051254;28;20463;-66
2022/05/22 03:16:01;;;;;;;3.95;3.22;;;15.80;99.90;;;;;;5050223;28;20056;-66
2022/05/22 03:18:27;;;;;;;4.40;2.83;;;15.90;99.90;;;;;;5049953;28;20033;-66
2022/05/22 03:20:52;;;;;;;7.60;3.55;;;15.90;99.90;;;;;;5048831;28;20098;-78
2022/05/22 03:23:18;;;;;;;6.07;3.25;;;15.80;99.90;;;;;;5051470;28;20029;-66
2022/05/22 03:25:46;;;;;;;5.65;3.10;;;15.80;99.90;;;;;;5050793;28;20113;-66
2022/05/22 03:28:13;;;;;;;7.35;3.50;;;15.80;99.90;;;;;;5050829;28;20189;-65
2022/05/22 03:30:39;;;;;;;4.68;3.25;;;15.70;99.90;;;;;;5050225;28;20025;-66
2022/05/22 03:33:06;;;;;;;4.75;2.55;;;15.70;99.90;;;;;;5049421;28;20377;-66
2022/05/22 03:35:31;;;;;;;3.90;2.80;;;15.80;99.90;;;;;;5051181;28;20089;-67
2022/05/22 03:37:57;;;;;;;8.30;3.08;;;15.80;99.90;;;;;;5050610;28;20021;-66
2022/05/22 03:40:23;;;;;;;6.53;3.03;;;15.70;99.90;;;;;;5051326;28;20405;-66
2022/05/22 03:42:48;;;;;;;6.72;3.40;;;15.70;99.90;;;;;;5051101;28;20029;-66
2022/05/22 03:45:15;;;;;;;4.13;2.33;;;15.70;99.90;;;;;;5050182;28;20055;-66
2022/05/22 03:47:40;;;;;;;3.00;2.70;;;15.70;99.90;;;;;;5051202;28;20104;-66
2022/05/22 03:50:08;;;;;;;7.35;2.97;;;15.80;99.90;;;;;;5050427;28;20062;-68
2022/05/22 03:52:38;;;;;;;4.95;2.72;;;15.80;99.90;;;;;;5051014;28;20082;-65
2022/05/22 03:55:07;;;;;;;3.97;2.55;;;15.90;99.90;;;;;;5049164;28;20076;-66
2022/05/22 03:57:33;;;;;;;5.40;2.83;;;15.80;99.90;;;;;;5049651;28;20026;-66
2022/05/22 03:59:58;;;;;;;5.88;2.65;;;15.80;99.90;;;;;;5050273;28;20119;-66
2022/05/22 04:02:24;;;;;;;6.00;2.55;;;15.80;99.90;;;;;;5050574;28;20533;-66
2022/05/22 04:04:50;;;;;;;5.97;2.50;;;15.90;99.90;;;;;;5050708;28;20359;-65
2022/05/22 04:07:16;;;;;;;4.25;2.58;;;15.90;99.90;;;;;;5052884;28;20343;-65
2022/05/22 04:09:42;;;;;;;3.40;2.63;;;15.90;99.90;;;;;;5053349;28;20365;-65
2022/05/22 04:12:11;;;;;;;7.28;3.28;;;15.90;99.90;;;;;;5054191;28;20112;-66
2022/05/22 04:14:37;;;;;;;3.80;2.42;;;15.90;99.90;;;;;;5053381;28;20033;-66
2022/05/22 04:17:03;;;;;;;5.32;2.63;;;15.90;99.90;;;;;;5054636;28;20076;-66
2022/05/22 04:19:29;;;;;;;6.22;2.80;;;16.00;99.90;;;;;;5053353;28;20140;-66
2022/05/22 04:21:55;;;;;;;4.18;2.42;;;16.10;99.90;;;;;;5053466;28;20448;-65
2022/05/22 04:27:05;;;;;;;3.50;2.58;;;16.00;99.90;;;;;;5053646;28;20048;-66
2022/05/22 04:29:32;;;;;;;5.05;2.60;;;16.00;99.90;;;;;;5054606;28;20033;-65
2022/05/22 04:31:58;;;;;;;4.13;2.50;;;15.90;99.90;;;;;;5052433;28;20083;-66
2022/05/22 04:34:24;;;;;;;5.90;2.92;;;16.00;99.90;;;;;;5053123;28;20033;-65
2022/05/22 04:36:49;;;;;;;4.65;2.60;;;16.00;99.90;;;;;;5053022;28;20417;-65
2022/05/22 04:39:15;;;;;;;4.72;2.15;;;16.00;99.90;;;;;;5053608;28;20037;-65
2022/05/22 04:41:41;;;;;;;6.30;3.05;;;16.10;99.90;;;;;;5052749;28;20029;-65
2022/05/22 04:44:07;;;;;;;7.72;3.10;;;16.20;99.90;;;;;;5053211;28;20059;-66
2022/05/22 04:46:32;;;;;;;5.82;2.70;;;16.10;99.90;;;;;;5053841;28;20029;-65
2022/05/22 04:48:58;;;;;;;4.63;2.60;;;16.10;99.90;;;;;;5053438;28;20104;-69
2022/05/22 04:51:23;;;;;;;6.53;2.58;;;16.20;99.90;;;;;;5053623;28;20021;-66
2022/05/22 04:53:50;;;;;;;5.15;3.42;;;16.30;99.90;;;;;;5054003;28;20439;-67
2022/05/22 04:56:16;;;;;;;2.78;1.58;;;16.40;99.90;;;;;;5053083;28;20056;-58
2022/05/22 04:58:41;;;;;;;5.10;1.90;;;17.40;99.90;;;;;;5053400;28;20044;-58
2022/05/22 05:01:11;;;;;;;7.10;1.90;;;18.60;99.90;;;;;;5051714;28;20025;-57
2022/05/22 05:03:37;;;;;;;7.20;1.90;;;19.10;99.90;;;;;;5052291;28;20025;-57
2022/05/22 05:06:03;;;;;;;3.17;1.77;;;19.50;99.90;;;;;;5052719;28;20450;-58
2022/05/22 05:08:30;;;;;;;5.15;1.90;;;19.80;99.90;;;;;;5046048;28;20029;-72
2022/05/22 05:10:56;;;;;;;6.50;2.47;;;19.50;99.90;;;;;;5035431;28;20466;-72
2022/05/22 05:13:23;;;;;;;5.40;2.25;;;19.40;99.90;;;;;;5034865;28;20021;-73
2022/05/22 05:16:07;;;;;;;8.02;1.73;;;19.00;99.90;;;;;;5053240;28;20136;-73
2022/05/22 05:18:35;;;;;;;4.60;1.70;;;19.30;99.90;;;;;;5051822;28;20038;-72
2022/05/22 05:21:04;;;;;;;2.30;1.55;;;19.60;99.90;;;;;;5053207;28;20032;-72
2022/05/22 05:23:30;;;;;;;14.68;1.83;;;20.10;99.90;;;;;;5035497;28;20119;-70
2022/05/22 05:25:57;;;;;;;6.65;2.10;;;20.40;99.90;;;;;;5052834;28;20461;-71
2022/05/22 05:28:22;;;;;;;6.50;1.65;;;20.50;99.90;;;;;;5054382;28;20355;-70
2022/05/22 05:30:48;;;;;;;3.45;1.80;;;20.60;99.90;;;;;;5053193;28;20033;-70
2022/05/22 05:33:14;;;;;;;3.85;1.90;;;20.70;99.80;;;;;;5034303;28;20087;-72
2022/05/22 05:35:41;;;;;;;3.65;1.83;;;20.80;99.60;;;;;;5034871;28;20115;-72
2022/05/22 05:38:07;;;;;;;3.72;1.60;;;20.80;99.40;;;;;;5052139;28;20037;-72
2022/05/22 05:40:34;;;;;;;3.53;1.80;;;20.80;99.20;;;;;;5053032;28;20035;-72
2022/05/22 05:43:00;;;;;;;35.28;2.40;;;20.90;98.90;;;;;;5046572;28;20098;-71
2022/05/22 05:45:27;;;;;;;5.05;1.75;;;20.90;98.70;;;;;;5052685;28;20061;-70
2022/05/22 05:47:52;;;;;;;7.78;2.05;;;21.00;98.60;;;;;;5053337;28;20079;-71
2022/05/22 05:50:21;;;;;;;4.57;1.67;;;21.00;98.40;;;;;;5031586;28;20025;-72
2022/05/22 05:52:51;;;;;;;5.00;1.98;;;21.10;98.30;;;;;;5035088;28;20021;-74
2022/05/22 05:55:17;;;;;;;3.35;1.60;;;21.10;98.00;;;;;;5034151;28;20025;-72
2022/05/22 05:57:43;;;;;;;3.78;1.85;;;21.10;97.80;;;;;;5052422;28;20029;-73
2022/05/22 06:00:11;;;;;;;4.05;1.67;;;21.00;97.80;;;;;;5034189;28;20043;-72
2022/05/22 06:02:37;;;;;;;5.30;2.25;;;21.00;97.60;;;;;;5034557;28;20025;-72
2022/05/22 06:05:04;;;;;;;8.57;2.33;;;21.10;97.60;;;;;;5051816;28;20051;-72
2022/05/22 06:07:30;;;;;;;5.65;1.75;;;21.10;97.30;;;;;;5051998;28;20109;-72
2022/05/22 06:09:56;;;;;;;4.13;1.80;;;21.10;97.30;;;;;;5034196;28;20511;-72
2022/05/22 06:12:22;;;;;;;6.65;2.63;;;21.00;97.40;;;;;;5034037;28;20632;-72
2022/05/22 06:14:47;;;;;;;7.43;1.95;;;21.00;97.10;;;;;;5051874;28;20069;-72
2022/05/22 06:17:14;;;;;;;3.95;2.15;;;21.00;97.30;;;;;;5051440;28;20044;-72
2022/05/22 06:19:57;;;;;;;6.05;2.28;;;21.10;97.20;;;;;;5034161;28;20131;-72
2022/05/22 06:22:25;;;;;;;5.45;1.50;;;21.10;97.00;;;;;;5032971;28;20289;-72
2022/05/22 06:24:51;;;;;;;9.77;1.80;;;21.20;96.80;;;;;;5051641;28;20029;-73
2022/05/22 06:27:17;;;;;;;3.45;1.52;;;21.20;96.70;;;;;;5033112;28;20047;-73
2022/05/22 06:29:43;;;;;;;2.45;1.33;;;21.20;96.90;;;;;;5033557;28;20439;-74
2022/05/22 06:32:12;;;;;;;12.05;1.88;;;21.20;96.50;;;;;;5033733;28;20029;-72
2022/05/22 06:34:41;;;;;;;3.67;1.42;;;21.30;96.60;;;;;;5052917;28;20029;-72
2022/05/22 06:37:09;;;;;;;2.78;1.58;;;21.40;96.70;;;;;;5052392;28;20025;-72
2022/05/22 06:39:51;;;;;;;7.20;2.50;;;21.40;96.60;;;;;;5029156;28;20033;-67
2022/05/22 06:42:30;;;;;;;7.57;2.72;;;21.50;96.10;;;;;;5031430;28;20123;-69
2022/05/22 06:44:59;;;;;;;5.68;1.95;;;20.80;96.50;;;;;;5052020;28;20040;-68
2022/05/22 06:47:28;;;;;;;4.85;2.20;;;20.60;97.10;;;;;;5033252;28;20083;-66
2022/05/22 06:49:55;;;;;;;5.97;1.77;;;20.50;97.30;;;;;;5050689;28;20033;-66
2022/05/22 06:52:21;;;;;;;7.63;2.20;;;20.60;98.10;;;;;;5033258;28;20447;-67
2022/05/22 06:54:47;;;;;;;4.70;1.83;;;20.60;97.50;;;;;;5052279;28;20068;-67
2022/05/22 06:57:19;;;;;;;7.40;2.22;;;20.60;97.60;;;;;;5050950;28;20029;-66
2022/05/22 06:59:46;;;;;;;5.68;2.20;;;20.70;97.50;;;;;;5033944;28;20043;-65
2022/05/22 07:02:14;;;;;;;8.27;1.73;;;20.60;97.00;;;;;;5051140;28;20025;-66
2022/05/22 07:04:40;;;;;;;5.68;2.13;;;20.60;96.80;;;;;;5033415;28;20025;-67
2022/05/22 07:07:07;;;;;;;4.47;1.77;;;20.70;96.70;;;;;;5033325;28;20079;-77
2022/05/22 07:09:33;;;;;;;7.60;2.00;;;20.70;96.40;;;;;;5033080;28;20113;-66
2022/05/22 07:11:59;;;;;;;6.97;1.92;;;21.00;98.40;;;;;;5051676;28;20057;-66
2022/05/22 07:14:27;;;;;;;5.53;1.90;;;21.20;97.60;;;;;;5033066;28;20488;-66
2022/05/22 07:16:53;;;;;;;5.95;1.75;;;21.30;97.30;;;;;;5050964;28;20059;-66
2022/05/22 07:19:19;;;;;;;4.53;1.52;;;21.50;95.80;;;;;;5051236;28;20115;-67
2022/05/22 07:21:46;;;;;;;5.55;2.17;;;21.70;96.70;;;;;;5033735;28;20434;-67
2022/05/22 07:24:14;;;;;;;5.32;1.60;;;21.70;95.20;;;;;;5051358;28;20029;-67
2022/05/22 07:26:40;;;;;;;2.55;1.90;;;21.90;95.70;;;;;;5033027;28;20047;-66
2022/05/22 07:29:06;;;;;;;3.97;1.83;;;21.90;95.50;;;;;;5033286;28;20037;-67
2022/05/22 07:31:34;;;;;;;4.28;1.85;;;22.10;95.40;;;;;;5051090;28;20112;-66
2022/05/22 07:34:00;;;;;;;5.35;2.13;;;22.10;94.90;;;;;;5051300;28;20441;-59
2022/05/22 07:36:26;;;;;;;4.43;1.88;;;22.00;95.00;;;;;;5049673;28;20199;-59
2022/05/22 07:38:52;;;;;;;5.53;2.40;;;22.10;96.00;;;;;;5032708;28;20044;-59
2022/05/22 07:41:18;;;;;;;3.08;1.83;;;22.20;96.10;;;;;;5031907;28;20473;-58
2022/05/22 07:43:43;;;;;;;5.20;2.30;;;22.40;98.60;;;;;;5032706;28;20031;-60
2022/05/22 07:46:12;;;;;;;4.57;1.88;;;22.40;95.40;;;;;;5049978;28;20103;-59
2022/05/22 07:48:39;;;;;;;5.03;2.10;;;22.60;98.10;;;;;;5032967;28;20515;-60
2022/05/22 07:51:05;;;;;;;3.40;1.38;;;22.60;94.80;;;;;;5029215;28;20040;-60
2022/05/22 07:53:31;;;;;;;3.25;1.98;;;22.70;94.70;;;;;;5032055;28;20037;-67
2022/05/22 07:55:57;;;;;;;5.60;1.75;;;23.00;96.80;;;;;;5050616;28;20043;-68
2022/05/22 07:58:24;;;;;;;6.75;2.05;;;22.90;93.90;;;;;;5050542;28;20029;-68
2022/05/22 08:00:52;;;;;;;4.45;1.65;;;22.80;93.90;;;;;;5050764;28;20094;-68
2022/05/22 08:03:17;;;;;;;3.17;1.48;;;22.80;93.60;;;;;;5050198;28;20060;-69
2022/05/22 08:05:43;;;;;;;7.57;2.20;;;23.00;93.70;;;;;;5032741;28;20049;-67
2022/05/22 08:08:10;;;;;;;3.47;1.33;;;23.10;92.80;;;;;;5050156;28;20441;-75
2022/05/22 08:10:37;;;;;;;6.00;2.35;;;23.40;93.10;;;;;;5032860;28;20386;-68
2022/05/22 08:13:05;;;;;;;3.20;1.65;;;23.50;92.80;;;;;;5048435;28;20037;-67
2022/05/22 08:15:33;;;;;;;5.18;1.38;;;23.60;92.50;;;;;;5049966;28;20113;-67
2022/05/22 08:18:00;;;;;;;6.75;1.75;;;;;;;;;;5032794;28;20036;-67
2022/05/22 08:20:28;;;;;;;4.57;1.23;;;23.60;91.30;;;;;;5032151;28;20040;-66
2022/05/22 08:22:58;;;;;;;4.63;1.13;;;24.10;91.30;;;;;;5050524;28;20056;-68
2022/05/22 08:25:27;;;;;;;3.67;1.42;;;23.90;89.80;;;;;;5049530;28;20098;-66
2022/05/22 08:27:54;;;;;;;3.90;1.45;;;23.10;88.90;;;;;;5050472;28;20430;-66
2022/05/22 08:30:21;;;;;;;4.05;1.40;;;23.20;91.00;;;;;;5049789;28;20485;-67
2022/05/22 08:32:49;;;;;;;4.60;1.60;;;23.00;90.30;;;;;;5050377;28;20043;-67
2022/05/22 08:35:19;;;;;;;5.80;1.45;;;23.20;90.60;;;;;;5031299;28;20095;-68
2022/05/22 08:37:45;;;;;;;3.45;1.33;;;23.70;89.80;;;;;;5050761;28;20036;-66
2022/05/22 08:40:13;;;;;;;5.75;1.25;;;24.00;87.20;;;;;;5015630;28;20037;-78
2022/05/22 08:42:46;;;;;;;3.85;1.27;;;24.30;87.30;;;;;;5050322;28;20079;-66
2022/05/22 08:45:28;;;;;;;4.55;1.08;;;24.80;86.60;;;;;;5030659;28;20021;-70
2022/05/22 08:47:59;;;;;;;3.42;0.98;;;24.60;83.50;;;;;;5032424;28;20454;-67
2022/05/22 08:50:25;;;;;;;7.00;1.10;;;23.40;87.60;;;;;;5049364;28;20032;-67
2022/05/22 08:52:57;;;;;;;4.82;1.05;;;23.50;85.70;;;;;;5033960;28;20035;-68
2022/05/22 09:01:15;;;;;;;4.28;1.13;;;24.90;86.80;;;;;;5040584;28;20044;-67
2022/05/22 09:04:19;;;;;;;3.17;1.20;;;25.20;84.80;;;;;;5038030;28;20140;-67
2022/05/22 09:06:59;;;;;;;2.88;1.35;;;25.80;84.50;;;;;;5046449;28;20041;-65
2022/05/22 09:09:28;;;;;;;8.10;1.98;;;25.80;84.30;;;;;;5054505;28;20033;-66
2022/05/22 09:12:25;;;;;;;5.03;1.88;;;25.30;80.80;;;;;;5036169;28;20029;-67
2022/05/22 09:14:54;;;;;;;8.27;1.27;;;25.20;82.40;;;;;;5036672;28;20029;-69
2022/05/22 09:17:28;;;;;;;14.93;2.63;;;25.60;84.00;;;;;;5036232;28;20479;-73
2022/05/22 09:19:59;;;;;;;14.27;2.15;;;25.30;90.80;;;;;;5054134;28;20060;-70
2022/05/22 09:22:48;;;;;;;2.45;1.05;;;25.70;85.00;;;;;;5035574;28;20079;-73
2022/05/22 09:25:23;;;;;;;14.07;2.30;;;26.30;86.30;;;;;;5054035;28;20050;-67
2022/05/22 09:28:10;;;;;;;24.55;4.13;;;26.70;91.10;;;;;;5054410;28;20422;-71
2022/05/22 09:30:39;;;;;;;7.75;1.75;;;;;;;;;;5031775;28;20061;-67
2022/05/22 09:33:26;;;;;;;4.32;1.38;;;;;;;;;;5042308;28;20013;-70
2022/05/22 09:36:16;;;;;;;9.77;1.67;;;;;;;;;;5035824;28;20128;-72
2022/05/22 09:38:51;;;;;;;4.57;1.87;;;;;;;;;;5053372;28;20057;-71
2022/05/22 09:41:48;;;;;;;7.80;1.50;;;27.50;84.10;;;;;;5053481;28;20028;-70
2022/05/22 09:44:41;;;;;;;12.38;2.00;;;27.30;80.90;;;;;;5056570;28;20032;-70
2022/05/22 09:47:36;;;;;;;6.03;1.40;;;26.90;80.90;;;;;;5039474;28;20031;-70
2022/05/22 09:50:22;;;;;;;4.93;1.40;;;25.70;88.40;;;;;;5057375;28;20119;-69
2022/05/22 09:53:04;;;;;;;3.17;1.25;;;25.50;81.00;;;;;;5039563;28;20060;-69
2022/05/22 09:55:52;;;;;;;8.15;2.08;;;25.30;81.20;;;;;;5038489;28;20470;-69
2022/05/22 09:58:41;;;;;;;5.40;1.63;;;24.90;84.10;;;;;;5037373;28;20064;-70
2022/05/22 10:01:07;;;;;;;3.65;1.23;;;24.60;85.00;;;;;;5038925;28;20109;-69
2022/05/22 10:03:57;;;;;;;8.02;1.60;;;24.60;85.40;;;;;;5036433;28;20386;-69
2022/05/22 10:07:06;;;;;;;6.72;2.00;;;24.50;89.50;;;;;;5052913;28;20025;-70
2022/05/22 10:09:55;;;;;;;4.72;1.50;;;24.30;91.50;;;;;;5007727;28;20073;-70
2022/05/22 10:12:48;;;;;;;3.58;1.35;;;24.30;85.50;;;;;;5033413;28;20424;-71
2022/05/22 10:15:26;;;;;;;10.63;2.50;;;24.30;84.50;;;;;;5052579;28;20102;-70
2022/05/22 10:18:04;;;;;;;4.85;1.02;;;24.10;90.00;;;;;;5052412;28;20124;-71
2022/05/22 10:21:02;;;;;;;2.38;0.88;;;23.90;86.40;;;;;;5052211;28;20071;-71
2022/05/22 10:23:45;;;;;;;2.30;0.80;;;23.80;85.20;;;;;;4990936;28;20036;-71
2022/05/22 10:26:26;;;;;;;5.63;1.88;;;23.90;84.70;;;;;;5034603;28;20033;-70
2022/05/22 10:29:00;;;;;;;4.57;1.70;;;24.10;90.30;;;;;;5035047;28;20033;-71
2022/05/22 10:31:48;;;;;;;4.20;1.25;;;24.60;87.00;;;;;;5034755;28;20029;-72
2022/05/22 10:34:42;;;;;;;5.63;1.20;;;25.60;83.10;;;;;;5053031;28;20042;-71
2022/05/22 10:37:14;;;;;;;1.88;1.00;;;26.50;81.40;;;;;;5052267;28;20025;-71
2022/05/22 10:39:40;;;;;;;1.50;0.95;;;27.30;81.20;;;;;;5033608;28;20104;-72
2022/05/22 10:45:07;;;;;;;5.80;1.20;;;28.10;79.30;;;;;;5052102;28;20039;-71
2022/05/22 10:47:35;;;;;;;3.50;1.30;;;28.60;76.90;;;;;;5051270;28;20025;-71
2022/05/22 10:50:18;;;;;;;4.35;1.45;;;28.80;77.20;;;;;;5051690;28;20388;-70
2022/05/22 10:52:44;;;;;;;3.20;1.33;;;28.90;74.10;;;;;;5033578;28;20135;-70
2022/05/22 10:55:25;;;;;;;5.55;1.15;;;28.80;74.60;;;;;;5033984;28;20029;-70
2022/05/22 10:57:57;;;;;;;;;;;28.60;75.70;;;;;;5033900;28;20025;-70
2022/05/22 11:00:24;;;;;;;3.72;1.40;;;28.40;76.90;;;;;;5033319;28;20366;-74
2022/05/22 11:02:51;;;;;;;3.47;1.63;;;28.10;78.70;;;;;;5034438;28;20055;-73
2022/05/22 11:05:29;;;;;;;2.75;1.27;;;27.80;77.40;;;;;;5033850;28;20033;-71
2022/05/22 11:07:57;;;;;;;2.85;1.67;;;27.20;76.60;;;;;;5033725;28;20025;-72
2022/05/22 11:10:27;;;;;;;6.40;2.30;;;26.70;76.90;;;;;;5032855;28;20032;-71
2022/05/22 11:13:24;;;;;;;3.30;1.70;;;26.50;78.90;;;;;;5051401;28;20434;-70
2022/05/22 11:15:49;;;;;;;5.38;1.95;;;26.20;78.50;;;;;;5028205;28;20156;-71
2022/05/22 11:18:22;;;;;;;4.05;1.95;;;25.90;78.90;;;;;;5030139;28;20096;-71
2022/05/22 11:21:09;;;;;;;2.97;1.10;;;25.70;77.30;;;;;;5031514;28;20048;-70
2022/05/22 11:24:12;;;;;;;1.90;1.10;;;25.30;77.80;;;;;;5031324;28;20033;-71
2022/05/22 11:26:58;;;;;;;2.50;1.65;;;25.30;80.50;;;;;;5029088;28;20025;-70
2022/05/22 11:29:49;;;;;;;6.57;1.80;;;25.40;79.90;;;;;;5029697;28;20037;-71
2022/05/22 11:32:35;;;;;;;3.28;1.60;;;26.10;79.30;;;;;;5031458;28;20029;-72
2022/05/22 11:35:34;;;;;;;4.65;1.48;;;26.40;77.70;;;;;;5027243;28;20037;-70
2022/05/22 11:38:06;;;;;;;2.75;1.50;;;26.40;76.20;;;;;;5030059;28;20030;-71
2022/05/22 11:40:54;;;;;;;3.05;0.90;;;26.40;78.50;;;;;;5031205;28;20036;-69
2022/05/22 11:43:56;;;;;;;3.45;1.00;;;26.60;76.10;;;;;;5030821;28;20462;-71
2022/05/22 11:46:59;;;;;;;4.32;1.13;;;27.20;75.20;;;;;;5030869;28;20175;-66
2022/05/22 11:50:06;;;;;;;5.30;1.38;;;27.60;74.30;;;;;;5029098;28;20121;-69
2022/05/22 11:52:59;;;;;;;2.22;1.02;;;28.20;74.90;;;;;;5008686;28;20046;-70
2022/05/22 11:55:46;;;;;;;1.90;0.95;;;28.50;76.10;;;;;;5029442;28;20455;-70
2022/05/22 11:58:20;;;;;;;2.00;1.20;;;29.10;73.30;;;;;;5031408;28;20040;-72
2022/05/22 12:01:00;;;;;;;1.73;0.85;;;29.20;72.50;;;;;;5030634;28;20399;-70
2022/05/22 12:03:46;;;;;;;2.37;1.13;;;29.10;70.90;;;;;;5030477;28;20052;-70
2022/05/22 12:06:19;;;;;;;3.60;1.15;;;29.00;69.30;;;;;;5030173;28;20028;-72
2022/05/22 12:09:01;;;;;;;2.50;1.23;;;28.90;68.00;;;;;;5030697;28;20033;-72
2022/05/22 12:12:00;;;;;;;3.00;1.10;;;28.60;69.10;;;;;;5030427;28;20387;-71
2022/05/22 12:14:26;;;;;;;5.13;1.17;;;29.00;69.50;;;;;;5030081;28;20037;-72
2022/05/22 12:17:10;;;;;;;2.90;1.40;;;29.20;70.50;;;;;;5047918;28;20045;-73
2022/05/22 12:19:50;;;;;;;2.63;1.00;;;29.30;69.30;;;;;;5032737;28;20091;-70
2022/05/22 12:22:22;;;;;;;5.37;1.20;;;29.40;69.70;;;;;;5050663;28;20366;-73
2022/05/22 12:24:53;;;;;;;4.82;1.10;;;29.70;70.20;;;;;;5050220;28;20032;-70
2022/05/22 12:27:22;;;;;;;2.42;0.93;;;29.80;71.00;;;;;;5052177;28;20035;-70
2022/05/22 12:30:08;;;;;;;3.38;0.68;;;29.80;68.10;;;;;;5054167;28;20037;-70
2022/05/22 12:32:56;;;;;;;1.98;0.65;;;29.40;70.10;;;;;;5053568;28;20036;-71
2022/05/22 12:35:24;;;;;;;6.43;1.80;;;29.30;69.80;;;;;;5054284;28;20040;-71
2022/05/22 12:38:01;;;;;;;2.38;0.68;;;28.90;70.00;;;;;;5036159;28;20025;-70
2022/05/22 12:40:26;;;;;;;2.47;1.00;;;28.90;71.60;;;;;;5053199;28;20065;-72
2022/05/22 12:42:56;;;;;;;3.60;0.75;;;29.20;69.90;;;;;;5053892;28;20110;-71
2022/05/22 12:45:24;;;;;;;3.80;1.35;;;29.30;70.30;;;;;;5053805;28;20139;-71
2022/05/22 12:47:52;;;;;;;3.15;1.17;;;29.50;68.90;;;;;;5035548;28;20109;-70
2022/05/22 12:50:54;;;;;;;5.57;1.45;;;29.80;68.80;;;;;;5035574;28;20036;-71
2022/05/22 12:53:31;;;;;;;5.35;1.17;;;29.80;68.30;;;;;;5035752;28;20080;-71
2022/05/22 12:56:15;;;;;;;2.75;1.27;;;29.60;67.80;;;;;;5053999;28;20048;-72
2022/05/22 12:58:47;;;;;;;4.45;1.42;;;29.80;67.60;;;;;;5053278;28;20029;-70
2022/05/22 13:01:48;;;;;;;4.90;1.27;;;28.80;66.80;;;;;;5035737;28;20445;-72
2022/05/22 13:04:19;;;;;;;4.20;1.48;;;29.00;67.40;;;;;;5010934;28;20040;-72
2022/05/22 13:06:57;;;;;;;;;;;28.70;68.00;;;;;;5053502;28;20029;-71
2022/05/22 13:09:32;;;;;;;3.03;1.25;;;28.10;67.80;;;;;;5035710;28;19935;-70
2022/05/22 13:12:03;;;;;;;2.15;1.20;;;27.90;68.60;;;;;;5035616;28;20079;-71
2022/05/22 13:14:41;;;;;;;;;;;27.90;68.00;;;;;;5035538;28;20024;-70
2022/05/22 13:17:09;;;;;;;4.03;1.15;;;27.80;68.20;;;;;;5053408;28;20242;-72
2022/05/22 13:19:45;;;;;;;4.35;1.15;;;28.10;67.70;;;;;;5035069;28;20044;-71
2022/05/22 13:22:23;;;;;;;5.32;1.20;;;27.80;67.80;;;;;;5054356;28;20028;-71
2022/05/22 13:24:53;;;;;;;5.07;1.00;;;28.30;68.80;;;;;;5052847;28;20032;-70
2022/05/22 13:27:38;;;;;;;2.05;1.10;;;28.80;68.90;;;;;;5053232;28;20033;-71
2022/05/22 13:30:07;;;;;;;1.80;0.55;;;29.40;68.10;;;;;;5035643;28;20037;-71